Time;durP1;ratioP1;P1;durP2;ratioP2;P2;SDS_P1;SDS_P2;PMS_P1;PMS_P2;Temp;Humidity;BMP_temperature;BMP_pressure;BME280_temperature;BME280_humidity;BME280_pressure;Samples;Min_cycle;Max_cycle;Signal;HPM_P1;HPM_P2
2023/01/11 00:02:16;;;;;;;65.38;29.60;;;;;;;;;;5111871;28;20472;-70
2023/01/11 00:04:42;;;;;;;56.45;27.42;;;;;;;;;;5112209;28;20028;-70
2023/01/11 00:07:09;;;;;;;52.78;25.35;;;;;;;;;;5112119;28;20024;-70
2023/01/11 00:09:35;;;;;;;52.88;23.90;;;;;;;;;;5093879;28;20020;-70
2023/01/11 00:12:01;;;;;;;37.20;17.02;;;;;;;;;;5113188;28;20414;-70
2023/01/11 00:14:28;;;;;;;25.13;10.90;;;;;;;;;;5115714;28;20028;-69
2023/01/11 00:16:54;;;;;;;23.63;9.73;;;;;;;;;;5115635;28;20023;-69
2023/01/11 00:19:20;;;;;;;31.67;10.18;;;;;;;;;;5097092;28;20028;-70
2023/01/11 00:21:48;;;;;;;20.38;9.27;;;;;;;;;;5115669;28;20023;-70
2023/01/11 00:24:15;;;;;;;28.77;10.23;;;;;;;;;;5115438;28;20028;-70
2023/01/11 00:26:41;;;;;;;33.45;11.75;;;;;;;;;;5114592;28;20018;-70
2023/01/11 00:29:08;;;;;;;34.15;12.30;;;;;;;;;;5115077;28;20042;-69
2023/01/11 00:31:34;;;;;;;28.90;12.10;;;;;;;;;;5114861;28;20039;-70
2023/01/11 00:34:01;;;;;;;41.75;13.88;;;;;;;;;;5115233;28;20392;-70
2023/01/11 00:36:27;;;;;;;31.40;13.48;;;;;;;;;;5115738;28;20036;-70
2023/01/11 00:38:54;;;;;;;31.67;12.98;;;;;;;;;;5115050;28;20081;-70
2023/01/11 00:49:36;;;;;;;29.40;13.55;;;;;;;;;;5114741;28;20027;-70
2023/01/11 00:52:07;;;;;;;32.42;14.20;;;;;;;;;;5114607;28;20031;-70
2023/01/11 00:54:34;;;;;;;31.10;12.85;;;;;;;;;;5114799;28;20392;-70
2023/01/11 00:57:01;;;;;;;31.90;13.25;;;;;;;;;;5114319;28;20029;-70
2023/01/11 00:59:27;;;;;;;30.60;12.95;;;;;;;;;;5114589;28;20028;-70
2023/01/11 01:01:53;;;;;;;33.40;13.50;;;;;;;;;;5114485;28;20033;-70
2023/01/11 01:04:20;;;;;;;32.58;13.75;;;;;;;;;;5114658;28;20020;-70
2023/01/11 01:06:46;;;;;;;39.58;14.07;;;;;;;;;;5114402;28;20030;-70
2023/01/11 01:09:12;;;;;;;36.67;13.73;;;;;;;;;;5114542;28;20026;-70
2023/01/11 01:11:39;;;;;;;27.88;12.55;;;;;;;;;;5113973;28;20038;-70
2023/01/11 01:16:51;;;;;;;28.55;13.88;;;;;;;;;;5114116;28;20024;-69
2023/01/11 01:19:17;;;;;;;83.20;33.92;;;;;;;;;;5114271;28;20015;-70
2023/01/11 01:21:43;;;;;;;31.63;13.60;;;;;;;;;;5113805;28;20061;-68
2023/01/11 01:24:10;;;;;;;41.30;17.75;;;;;;;;;;5113940;28;20064;-69
2023/01/11 01:26:36;;;;;;;45.67;19.45;;;;;;;;;;5113599;28;20032;-70
2023/01/11 01:29:03;;;;;;;41.33;17.33;;;;;;;;;;5114173;28;20034;-70
2023/01/11 01:31:29;;;;;;;39.75;15.88;;;;;;;;;;5114072;28;20023;-69
2023/01/11 01:33:55;;;;;;;43.35;16.63;;;;;;;;;;5113969;28;20406;-69
2023/01/11 01:36:22;;;;;;;38.65;15.45;;;;;;;;;;5113883;28;20034;-70
2023/01/11 01:38:48;;;;;;;40.97;15.27;;;;;;;;;;5113857;28;20032;-70
2023/01/11 01:41:15;;;;;;;33.97;14.20;;;;;;;;;;5113305;28;20101;-69
2023/01/11 01:43:54;;;;;;;38.05;14.80;;;;;;;;;;5113933;28;20032;-70
2023/01/11 01:46:22;;;;;;;103.50;40.45;;;;;;;;;;5113682;28;20027;-70
2023/01/11 01:48:54;;;;;;;51.90;20.08;;;;;;;;;;5113518;28;20024;-70
2023/01/11 01:51:25;;;;;;;35.08;16.65;;;;;;;;;;5113475;28;20503;-70
2023/01/11 01:53:54;;;;;;;58.03;25.15;;;;;;;;;;5113130;28;20434;-69
2023/01/11 01:56:25;;;;;;;75.03;31.30;;;;;;;;;;5113527;28;20448;-69
2023/01/11 01:58:54;;;;;;;67.20;27.58;;;;;;;;;;5113378;28;20065;-70
2023/01/11 02:04:12;;;;;;;34.75;14.00;;;;;;;;;;5113408;28;20044;-70
2023/01/11 02:06:39;;;;;;;33.92;15.15;;;;;;;;;;5114123;28;20034;-70
2023/01/11 02:09:11;;;;;;;28.48;12.82;;;;;;;;;;5112811;28;20035;-70
2023/01/11 02:11:42;;;;;;;23.90;10.75;;;;;;;;;;5113083;28;20042;-70
2023/01/11 02:14:11;;;;;;;24.30;10.82;;;;;;;;;;5113077;28;20031;-70
2023/01/11 02:16:37;;;;;;;28.00;10.60;;;;;;;;;;5113183;28;20030;-69
2023/01/11 02:19:04;;;;;;;20.38;8.43;;;;;;;;;;5113294;28;20020;-70
2023/01/11 02:21:49;;;;;;;23.98;8.95;;;;;;;;;;5113001;28;20024;-70
2023/01/11 02:24:18;;;;;;;20.25;7.43;;;;;;;;;;5112750;28;20528;-70
2023/01/11 02:26:45;;;;;;;23.50;7.93;;;;;;;;;;5112754;28;20042;-70
2023/01/11 02:29:12;;;;;;;25.50;8.32;;;;;;;;;;5113300;28;20023;-70
2023/01/11 02:31:39;;;;;;;26.60;8.30;;;;;;;;;;5094475;28;20031;-70
2023/01/11 02:34:05;;;;;;;28.90;8.57;;;;;;;;;;5112196;28;20023;-69
2023/01/11 02:36:52;;;;;;;23.30;9.10;;;;;;;;;;5112949;28;20028;-69
2023/01/11 02:39:36;;;;;;;25.98;9.45;;;;;;;;;;5112474;28;20015;-70
2023/01/11 02:45:00;;;;;;;25.52;9.45;;;;;;;;;;5128512;27;20028;-70
2023/01/11 02:47:49;;;;;;;26.20;9.40;;;;;;;;;;5112607;28;20038;-70
2023/01/11 02:50:28;;;;;;;25.88;9.00;;;;;;;;;;5104636;28;20042;-70
2023/01/11 02:52:55;;;;;;;21.73;9.88;;;;;;;;;;5112312;28;20035;-70
2023/01/11 02:55:26;;;;;;;27.55;9.88;;;;;;;;;;5112548;28;20016;-70
2023/01/11 02:57:55;;;;;;;25.75;10.93;;;;;;;;;;5112602;28;20032;-70
2023/01/11 03:00:21;;;;;;;24.15;10.05;;;;;;;;;;5112491;28;20020;-70
2023/01/11 03:03:04;;;;;;;26.23;8.70;;;;;;;;;;5112701;28;20030;-70
2023/01/11 03:05:31;;;;;;;26.05;10.25;;;;;;;;;;5112494;28;20391;-70
2023/01/11 03:08:02;;;;;;;26.50;9.18;;;;;;;;;;5094166;28;20538;-69
2023/01/11 03:10:39;;;;;;;24.35;8.95;;;;;;;;;;5112436;28;20031;-70
2023/01/11 03:13:24;;;;;;;26.67;8.88;;;;;;;;;;5112489;28;20031;-69
2023/01/11 03:16:20;;;;;;;24.17;9.13;;;;;;;;;;5112343;28;20353;-70
2023/01/11 03:18:52;;;;;;;28.67;9.25;;;;;;;;;;5099707;28;20395;-70
2023/01/11 03:21:22;;;;;;;24.77;9.50;;;;;;;;;;5112107;28;20023;-70
2023/01/11 03:23:54;;;;;;;33.03;9.95;;;;;;;;;;5112653;28;20049;-70
2023/01/11 03:26:35;;;;;;;29.42;11.75;;;;;;;;;;5094129;28;20036;-70
2023/01/11 03:29:10;;;;;;;23.42;10.70;;;;;;;;;;5094208;28;20032;-70
2023/01/11 03:31:59;;;;;;;29.65;11.35;;;;;;;;;;5112097;28;20028;-70
2023/01/11 03:34:29;;;;;;;27.40;11.13;;;;;;;;;;5112135;28;20072;-70
2023/01/11 03:36:57;;;;;;;28.63;11.73;;;;;;;;;;5112014;28;20084;-70
2023/01/11 03:39:26;;;;;;;29.65;10.93;;;;;;;;;;5112344;28;20020;-70
2023/01/11 03:41:56;;;;;;;25.88;11.13;;;;;;;;;;5093916;28;20040;-70
2023/01/11 03:44:23;;;;;;;27.75;11.38;;;;;;;;;;5111998;28;20023;-70
2023/01/11 03:46:52;;;;;;;28.80;11.27;;;;;;;;;;5097043;28;20038;-70
2023/01/11 03:49:22;;;;;;;29.02;11.93;;;;;;;;;;5115926;28;20022;-70
2023/01/11 03:51:50;;;;;;;28.02;12.15;;;;;;;;;;5115680;28;20036;-69
2023/01/11 03:54:22;;;;;;;32.33;11.52;;;;;;;;;;5116048;28;20019;-70
2023/01/11 03:56:48;;;;;;;26.35;10.85;;;;;;;;;;5115954;28;20019;-70
2023/01/11 03:59:15;;;;;;;27.13;10.80;;;;;;;;;;5115841;28;20022;-70
2023/01/11 04:01:43;;;;;;;30.73;10.60;;;;;;;;;;5115585;28;20026;-70
2023/01/11 04:04:09;;;;;;;26.15;11.38;;;;;;;;;;5115571;28;20034;-69
2023/01/11 04:06:37;;;;;;;30.00;11.32;;;;;;;;;;5115964;28;20015;-70
2023/01/11 04:09:03;;;;;;;26.33;11.27;;;;;;;;;;5115761;28;20016;-70
2023/01/11 04:11:30;;;;;;;33.28;11.05;;;;;;;;;;5097238;28;20032;-70
2023/01/11 04:13:56;;;;;;;28.25;10.82;;;;;;;;;;5115579;28;20022;-70
2023/01/11 04:16:22;;;;;;;26.67;10.80;;;;;;;;;;5115626;28;20076;-70
2023/01/11 04:18:49;;;;;;;26.92;10.52;;;;;;;;;;5114970;28;20031;-70
2023/01/11 04:21:15;;;;;;;30.90;10.73;;;;;;;;;;5115467;28;20019;-70
2023/01/11 04:23:41;;;;;;;22.75;10.45;;;;;;;;;;5115555;28;20028;-70
2023/01/11 04:26:07;;;;;;;23.88;9.90;;;;;;;;;;5115158;28;20023;-70
2023/01/11 04:28:34;;;;;;;24.10;9.27;;;;;;;;;;5115246;28;20391;-70
2023/01/11 04:31:00;;;;;;;22.73;9.63;;;;;;;;;;5114998;28;20034;-70
2023/01/11 04:33:27;;;;;;;27.63;10.30;;;;;;;;;;5114732;28;20024;-70
2023/01/11 04:35:53;;;;;;;27.80;9.93;;;;;;;;;;5115212;28;20057;-69
2023/01/11 04:38:22;;;;;;;23.63;9.63;;;;;;;;;;5114891;28;20445;-69
2023/01/11 04:42:16;;;;;;;23.58;10.25;;;;;;;;;;5114766;28;20047;-70
2023/01/11 04:43:35;;;;;;;28.08;10.98;;;;;;;;;;5114941;28;20023;-70
2023/01/11 04:46:01;;;;;;;24.88;11.05;;;;;;;;;;5114787;28;20434;-70
2023/01/11 04:48:27;;;;;;;33.72;12.05;;;;;;;;;;5114544;28;20379;-70
2023/01/11 04:50:54;;;;;;;29.83;11.18;;;;;;;;;;5114695;28;20492;-70
2023/01/11 04:53:20;;;;;;;26.15;10.70;;;;;;;;;;5115039;28;20032;-70
2023/01/11 04:55:46;;;;;;;27.90;11.07;;;;;;;;;;5114676;28;20015;-70
2023/01/11 04:58:13;;;;;;;24.15;10.40;;;;;;;;;;5113926;28;20027;-70
2023/01/11 05:00:39;;;;;;;23.85;10.38;;;;;;;;;;5114439;28;20480;-70
2023/01/11 05:03:05;;;;;;;24.98;9.63;;;;;;;;;;5114580;28;20035;-70
2023/01/11 05:05:32;;;;;;;27.92;9.85;;;;;;;;;;5114533;28;20015;-70
2023/01/11 05:07:59;;;;;;;25.50;10.80;;;;;;;;;;5114398;28;20479;-70
2023/01/11 05:10:25;;;;;;;21.92;10.43;;;;;;;;;;5114693;28;20032;-70
2023/01/11 05:12:51;;;;;;;24.13;10.23;;;;;;;;;;5114193;28;20069;-70
2023/01/11 05:15:18;;;;;;;24.15;9.77;;;;;;;;;;5114431;28;20032;-70
2023/01/11 05:17:44;;;;;;;27.13;10.93;;;;;;;;;;5114042;28;20395;-70
2023/01/11 05:20:11;;;;;;;32.78;11.63;;;;;;;;;;5114069;28;20180;-69
2023/01/11 05:22:37;;;;;;;23.52;10.60;;;;;;;;;;5114543;28;20024;-69
2023/01/11 05:25:03;;;;;;;26.60;10.55;;;;;;;;;;5113961;28;20024;-70
2023/01/11 05:27:30;;;;;;;21.13;10.50;;;;;;;;;;5114015;28;20475;-70
2023/01/11 05:29:56;;;;;;;21.52;10.07;;;;;;;;;;5114390;28;20032;-70
2023/01/11 05:32:22;;;;;;;20.67;11.13;;;;;;;;;;5113603;28;20048;-69
2023/01/11 05:34:49;;;;;;;24.95;10.98;;;;;;;;;;5114092;28;20015;-70
2023/01/11 05:37:15;;;;;;;24.15;10.52;;;;;;;;;;5113878;28;20023;-70
2023/01/11 05:39:41;;;;;;;28.15;11.13;;;;;;;;;;5113744;28;20024;-69
2023/01/11 05:42:08;;;;;;;28.90;12.10;;;;;;;;;;5113995;28;20050;-70
2023/01/11 05:47:19;;;;;;;31.75;13.40;;;;;;;;;;5113300;28;20027;-70
2023/01/11 05:49:45;;;;;;;32.67;13.48;;;;;;;;;;5113722;28;20020;-70
2023/01/11 05:52:11;;;;;;;37.05;14.82;;;;;;;;;;5112982;28;20487;-70
2023/01/11 05:54:38;;;;;;;26.48;11.30;;;;;;;;;;5113840;28;20028;-70
2023/01/11 05:57:09;;;;;;;31.00;11.70;;;;;;;;;;5113495;28;20028;-70
2023/01/11 05:59:35;;;;;;;45.67;11.88;;;;;;;;;;5113532;28;20034;-70
2023/01/11 06:02:01;;;;;;;34.85;12.30;;;;;;;;;;5112956;28;20011;-70
2023/01/11 06:04:28;;;;;;;31.10;12.60;;;;;;;;;;5113773;28;20035;-70
2023/01/11 06:06:54;;;;;;;40.08;19.05;;;;;;;;;;5113268;28;20377;-70
2023/01/11 06:09:21;;;;;;;38.97;16.05;;;;;;;;;;5112444;28;20015;-70
2023/01/11 06:11:49;;;;;;;32.92;14.27;;;;;;;;;;5113232;28;20040;-70
2023/01/11 06:14:15;;;;;;;39.92;15.05;;;;;;;;;;5113069;28;20353;-70
2023/01/11 06:16:42;;;;;;;43.25;19.70;;;;;;;;;;5112705;28;20402;-70
2023/01/11 06:19:10;;;;;;;26.48;13.05;;;;;;;;;;5095321;28;20027;-70
2023/01/11 06:21:36;;;;;;;32.33;14.48;;;;;;;;;;5113235;28;20020;-70
2023/01/11 06:24:03;;;;;;;37.08;15.23;;;;;;;;;;5113032;28;20011;-70
2023/01/11 06:26:29;;;;;;;36.35;18.42;;;;;;;;;;5094490;28;20030;-69
2023/01/11 06:28:55;;;;;;;41.10;19.35;;;;;;;;;;5112731;28;20053;-70
2023/01/11 06:31:22;;;;;;;34.72;15.93;;;;;;;;;;5112401;28;20488;-70
2023/01/11 06:33:48;;;;;;;62.00;29.02;;;;;;;;;;5113022;28;20030;-70
2023/01/11 06:36:15;;;;;;;34.15;15.75;;;;;;;;;;5113037;28;20020;-69
2023/01/11 06:38:41;;;;;;;54.38;23.30;;;;;;;;;;5113058;28;20023;-69
2023/01/11 06:41:08;;;;;;;29.63;15.45;;;;;;;;;;5112615;28;20047;-70
2023/01/11 06:43:36;;;;;;;39.88;20.27;;;;;;;;;;5112349;28;20407;-69
2023/01/11 06:46:02;;;;;;;92.25;42.13;;;;;;;;;;5112617;28;20015;-70
2023/01/11 06:48:29;;;;;;;40.03;18.90;;;;;;;;;;5112657;28;20033;-69
2023/01/11 06:50:56;;;;;;;104.57;48.22;;;;;;;;;;5112559;28;20034;-70
2023/01/11 06:53:23;;;;;;;35.55;19.33;;;;;;;;;;5112571;28;20365;-70
2023/01/11 06:55:54;;;;;;;30.48;15.32;;;;;;;;;;5112996;28;20024;-70
2023/01/11 06:58:22;;;;;;;31.05;16.10;;;;;;;;;;5112261;28;20030;-70
2023/01/11 07:00:49;;;;;;;38.17;14.85;;;;;;;;;;5112198;28;20393;-70
2023/01/11 07:03:15;;;;;;;33.35;14.57;;;;;;;;;;5112543;28;20461;-70
2023/01/11 07:05:43;;;;;;;30.95;14.10;;;;;;;;;;5112459;28;20038;-70
2023/01/11 07:08:09;;;;;;;37.97;15.68;;;;;;;;;;5112510;28;20029;-70
2023/01/11 07:10:36;;;;;;;32.72;14.70;;;;;;;;;;5112441;28;20062;-70
2023/01/11 07:13:02;;;;;;;37.97;20.27;;;;;;;;;;5108754;28;20036;-70
2023/01/11 07:15:28;;;;;;;44.17;21.42;;;;;;;;;;5110884;28;20027;-69
2023/01/11 07:17:55;;;;;;;39.30;17.92;;;;;;;;;;5111510;28;20020;-69
2023/01/11 07:20:22;;;;;;;35.28;17.40;;;;;;;;;;5111858;28;20020;-70
2023/01/11 07:22:48;;;;;;;67.15;34.80;;;;;;;;;;5115871;28;20027;-71
2023/01/11 07:25:15;;;;;;;71.65;34.55;;;;;;;;;;5116168;28;20377;-69
2023/01/11 07:27:41;;;;;;;83.55;37.78;;;;;;;;;;5115159;28;20027;-70
2023/01/11 07:30:08;;;;;;;44.67;20.85;;;;;;;;;;5112665;28;20034;-70
2023/01/11 07:32:34;;;;;;;35.90;15.70;;;;;;;;;;5113743;28;20031;-70
2023/01/11 07:35:00;;;;;;;50.15;24.05;;;;;;;;;;5115197;28;20041;-71
2023/01/11 07:37:31;;;;;;;35.65;17.20;;;;;;;;;;5115082;27;20492;-70
2023/01/11 07:39:58;;;;;;;43.22;20.65;;;;;;;;;;5116588;27;20036;-71
2023/01/11 07:45:09;;;;;;;51.35;24.58;;;;;;;;;;5126086;27;20019;-71
2023/01/11 07:47:35;;;;;;;44.20;24.48;;;;;;;;;;5050441;28;20056;-70
2023/01/11 07:50:02;;;;;;;66.95;29.45;;;;;;;;;;5034915;28;20021;-71
2023/01/11 07:52:28;;;;;;;39.22;19.52;;;;;;;;;;5054681;28;20060;-71
2023/01/11 07:55:01;;;;;;;48.05;20.00;;;;;;;;;;5054662;28;20013;-71
2023/01/11 07:57:27;;;;;;;42.75;20.60;;;;;;;;;;5069568;28;20035;-71
2023/01/11 07:59:54;;;;;;;43.95;19.27;;;;;;;;;;5054560;28;20025;-71
2023/01/11 08:02:20;;;;;;;41.40;18.42;;;;;;;;;;5052820;28;20078;-71
2023/01/11 08:04:47;;;;;;;35.60;17.23;;;;;;;;;;5054352;28;20595;-70
2023/01/11 08:07:13;;;;;;;35.25;18.42;;;;;;;;;;5054345;28;20527;-71
2023/01/11 08:09:39;;;;;;;39.03;19.50;;;;;;;;;;5054591;28;20035;-71
2023/01/11 08:14:51;;;;;;;40.15;19.92;;;;;;;;;;5054355;28;20080;-71
2023/01/11 08:17:17;;;;;;;69.20;33.63;;;;;;;;;;5054192;28;20029;-71
2023/01/11 08:19:43;;;;;;;87.18;43.95;;;;;;;;;;5054181;28;20029;-71
2023/01/11 08:22:11;;;;;;;59.42;28.73;;;;;;;;;;5048874;28;20025;-70
2023/01/11 08:24:37;;;;;;;40.60;16.77;;;;;;;;;;5084968;28;20031;-71
2023/01/11 08:27:04;;;;;;;35.92;17.17;;;;;;;;;;5052148;28;20033;-71
2023/01/11 08:29:30;;;;;;;36.17;17.80;;;;;;;;;;5085887;28;20074;-71
2023/01/11 08:31:58;;;;;;;38.65;17.40;;;;;;;;;;5051549;28;20649;-71
2023/01/11 08:34:26;;;;;;;48.22;25.63;;;;;;;;;;5052040;28;20041;-70
2023/01/11 08:36:52;;;;;;;36.88;18.23;;;;;;;;;;5048331;28;20025;-73
2023/01/11 08:39:19;;;;;;;38.97;18.85;;;;;;;;;;5047989;28;20029;-69
2023/01/11 08:41:45;;;;;;;36.38;16.73;;;;;;;;;;5045373;28;20350;-70
2023/01/11 08:44:11;;;;;;;30.30;13.05;;;;;;;;;;5036619;28;20047;-70
2023/01/11 08:46:38;;;;;;;37.80;11.50;;;;;;;;;;5051387;28;20017;-69
2023/01/11 08:49:10;;;;;;;32.88;12.63;;;;;;;;;;5042153;28;20413;-69
2023/01/11 08:51:37;;;;;;;35.15;12.55;;;;;;;;;;5050246;28;20072;-70
2023/01/11 08:54:06;;;;;;;32.17;13.10;;;;;;;;;;5048678;28;20029;-70
2023/01/11 08:56:33;;;;;;;38.42;17.70;;;;;;;;;;5038091;28;20055;-70
2023/01/11 08:59:01;;;;;;;47.22;21.08;;;;;;;;;;5038083;28;20035;-69
2023/01/11 09:01:29;;;;;;;47.85;18.02;;;;;;;;;;5047145;28;20047;-69
2023/01/11 09:03:56;;;;;;;35.88;16.77;;;;;;;;;;5053196;28;20029;-69
2023/01/11 09:06:22;;;;;;;28.08;12.32;;;;;;;;;;5078092;28;20025;-69
2023/01/11 09:08:49;;;;;;;26.23;11.30;;;;;;;;;;5032637;28;20025;-69
2023/01/11 09:14:00;;;;;;;23.02;10.90;;;;;;;;;;5052557;28;20489;-69
2023/01/11 09:16:26;;;;;;;22.95;10.20;;;;;;;;;;5052527;28;20029;-70
2023/01/11 09:18:54;;;;;;;22.88;10.20;;;;;;;;;;5052261;28;20032;-70
2023/01/11 09:21:21;;;;;;;26.00;10.57;;;;;;;;;;5084579;28;20031;-70
2023/01/11 09:23:47;;;;;;;20.60;8.60;;;;;;;;;;5052036;28;20033;-70
2023/01/11 09:26:14;;;;;;;20.52;9.75;;;;;;;;;;5051826;28;20395;-70
2023/01/11 09:28:40;;;;;;;22.42;10.23;;;;;;;;;;5044911;28;20375;-69
2023/01/11 09:31:07;;;;;;;26.42;11.57;;;;;;;;;;5050781;28;20447;-70
2023/01/11 09:33:34;;;;;;;22.40;10.60;;;;;;;;;;5050948;28;20051;-70
2023/01/11 09:36:01;;;;;;;21.50;10.32;;;;;;;;;;5051333;28;20031;-70
2023/01/11 09:38:29;;;;;;;22.60;10.75;;;;;;;;;;5083247;28;20454;-70
2023/01/11 09:41:11;;;;;;;25.55;11.40;;;;;;;;;;5050754;28;20041;-70
2023/01/11 09:43:45;;;;;;;26.30;13.98;;;;;;;;;;5077514;28;20048;-70
2023/01/11 09:46:13;;;;;;;65.15;33.08;;;;;;;;;;5040155;28;20039;-70
2023/01/11 09:48:39;;;;;;;23.17;11.55;;;;;;;;;;5051744;28;20021;-69
2023/01/11 09:51:07;;;;;;;36.40;24.23;;;;;;;;;;5044186;28;20052;-70
2023/01/11 09:53:37;;;;;;;19.75;9.00;;;;;;;;;;5038064;28;20054;-70
2023/01/11 09:56:06;;;;;;;24.63;13.18;;;;;;;;;;5049231;28;20032;-70
2023/01/11 09:58:48;;;;;;;19.40;8.30;;;;;;;;;;5046296;28;20021;-70
2023/01/11 10:01:14;;;;;;;20.23;9.13;;;;;;;;;;5051905;28;20017;-70
2023/01/11 10:03:58;;;;;;;19.52;10.32;;;;;;;;;;5051440;28;20074;-70
2023/01/11 10:06:34;;;;;;;23.23;11.38;;;;;;;;;;5051383;28;20027;-69
2023/01/11 10:09:09;;;;;;;22.95;10.02;;;;;;;;;;5050168;28;20021;-69
2023/01/11 10:12:00;;;;;;;20.58;9.90;;;;;;;;;;5048620;28;20367;-70
2023/01/11 10:14:45;;;;;;;23.77;9.10;;;;;;;;;;5038979;28;20504;-70
2023/01/11 10:17:41;;;;;;;17.00;8.95;;;;;;;;;;5050029;28;20039;-70
2023/01/11 10:20:13;;;;;;;17.77;8.38;;;;;;;;;;5050378;28;20443;-70
2023/01/11 10:22:42;;;;;;;16.42;8.82;;;;;;;;;;5049927;28;20477;-70
2023/01/11 10:25:15;;;;;;;14.60;5.60;;;;;;;;;;5083920;28;20027;-70
2023/01/11 10:27:52;;;;;;;11.77;5.70;;;;;;;;;;5051347;28;20021;-70
2023/01/11 10:36:12;;;;;;;12.30;6.75;;;;;;;;;;5050748;28;20025;-69
2023/01/11 10:41:51;;;;;;;28.17;12.88;;;;;;;;;;5050691;28;20049;-70
2023/01/11 10:44:29;;;;;;;25.25;12.05;;;;;;;;;;5057902;28;20042;-70
2023/01/11 10:46:56;;;;;;;20.38;11.05;;;;;;;;;;5067866;28;20038;-70
2023/01/11 10:49:38;;;;;;;22.17;10.00;;;;;;;;;;5050883;28;20033;-70
2023/01/11 10:52:23;;;;;;;18.13;9.18;;;;;;;;;;5050359;28;20032;-70
2023/01/11 10:54:53;;;;;;;16.33;8.30;;;;;;;;;;5050459;28;20040;-70
2023/01/11 10:57:51;;;;;;;19.67;8.93;;;;;;;;;;5050766;28;20031;-70
2023/01/11 11:00:21;;;;;;;22.05;8.93;;;;;;;;;;5038270;28;20037;-69
2023/01/11 11:03:03;;;;;;;15.55;7.45;;;;;;;;;;5050698;28;20039;-70
2023/01/11 11:05:33;;;;;;;15.65;8.23;;;;;;;;;;5057675;28;20036;-69
2023/01/11 11:08:18;;;;;;;18.63;10.05;;;;;;;;;;5069723;28;20043;-70
2023/01/11 11:10:50;;;;;;;29.15;16.33;;;;;;;;;;5070734;28;20036;-70
2023/01/11 11:13:23;;;;;;;25.42;11.82;;;;;;;;;;5070975;28;20028;-70
2023/01/11 11:15:49;;;;;;;21.85;11.70;;;;;;;;;;5065663;28;20021;-69
2023/01/11 11:18:15;;;;;;;23.40;11.15;;;;;;;;;;5066426;28;20040;-70
2023/01/11 11:20:43;;;;;;;19.42;9.40;;;;;;;;;;5050589;28;20031;-70
2023/01/11 11:23:13;;;;;;;18.38;9.50;;;;;;;;;;5051257;28;20021;-70
2023/01/11 11:25:41;;;;;;;16.40;8.52;;;;;;;;;;5050439;28;20409;-70
2023/01/11 11:28:23;;;;;;;15.80;8.32;;;;;;;;;;5050626;28;20052;-69
2023/01/11 11:30:52;;;;;;;18.30;8.35;;;;;;;;;;5050529;28;20024;-70
2023/01/11 11:33:18;;;;;;;13.40;7.45;;;;;;;;;;5050633;28;20048;-70
2023/01/11 11:35:45;;;;;;;14.43;8.77;;;;;;;;;;5050808;28;20021;-69
2023/01/11 11:38:31;;;;;;;11.23;6.70;;;;;;;;;;5050713;28;20021;-70
2023/01/11 11:41:03;;;;;;;9.70;6.15;;;;;;;;;;5050481;28;20049;-69
2023/01/11 11:43:31;;;;;;;10.25;6.00;;;;;;;;;;5050730;28;20029;-69
2023/01/11 11:45:57;;;;;;;15.75;9.50;;;;;;;;;;5050684;28;20031;-69
2023/01/11 11:48:24;;;;;;;12.95;7.30;;;;;;;;;;5050456;28;20047;-69
2023/01/11 11:50:52;;;;;;;5.95;4.13;;;;;;;;;;5050494;28;20450;-69
2023/01/11 11:53:27;;;;;;;6.95;4.53;;;;;;;;;;5050371;28;20041;-70
2023/01/11 11:55:54;;;;;;;9.02;4.50;;;;;;;;;;5050817;28;20035;-70
2023/01/11 11:58:22;;;;;;;8.25;4.60;;;;;;;;;;5050167;28;20032;-70
2023/01/11 12:00:49;;;;;;;7.30;4.00;;;;;;;;;;5050715;28;20029;-69
2023/01/11 12:03:21;;;;;;;7.78;4.03;;;;;;;;;;5050449;28;20033;-70
2023/01/11 12:05:48;;;;;;;12.27;3.80;;;;;;;;;;5050464;28;20429;-70
2023/01/11 12:08:15;;;;;;;6.82;3.78;;;;;;;;;;5054139;28;20389;-70
2023/01/11 12:10:47;;;;;;;7.28;3.85;;;;;;;;;;5053956;28;20025;-69
2023/01/11 12:13:26;;;;;;;9.20;5.72;;;;;;;;;;5054141;28;20043;-70
2023/01/11 12:16:00;;;;;;;12.23;5.45;;;;;;;;;;5054298;28;20029;-72
2023/01/11 12:18:31;;;;;;;12.18;4.75;;;;;;;;;;5053574;28;20490;-70
2023/01/11 12:21:08;;;;;;;10.93;5.13;;;;;;;;;;5053612;28;20032;-70
2023/01/11 12:23:34;;;;;;;11.77;5.35;;;;;;;;;;5053697;28;20025;-69
2023/01/11 12:26:06;;;;;;;17.65;6.65;;;;;;;;;;5053609;28;20043;-70
2023/01/11 12:28:51;;;;;;;9.77;5.68;;;;;;;;;;5054047;28;20029;-69
2023/01/11 12:31:26;;;;;;;13.90;6.25;;;;;;;;;;5053723;28;20021;-70
2023/01/11 12:34:13;;;;;;;9.50;6.20;;;;;;;;;;5053456;28;20037;-70
2023/01/11 12:36:54;;;;;;;10.82;5.40;;;;;;;;;;5011805;28;20048;-70
2023/01/11 12:39:20;;;;;;;;;;;;;;;;;;5011956;28;20176;-70
2023/01/11 12:41:54;;;;;;;14.05;6.30;;;;;;;;;;5011401;28;19921;-70
2023/01/11 12:44:26;;;;;;;10.15;5.60;;;;;;;;;;5011675;28;20040;-69
2023/01/11 12:47:14;;;;;;;11.60;5.65;;;;;;;;;;5011089;28;20132;-69
2023/01/11 12:49:59;;;;;;;8.57;5.70;;;;;;;;;;5010967;28;20522;-69
2023/01/11 12:52:26;;;;;;;9.45;5.72;;;;;;;;;;5011159;28;20037;-70
2023/01/11 12:55:00;;;;;;;11.90;5.85;;;;;;;;;;5011125;28;20045;-69
2023/01/11 12:57:29;;;;;;;10.30;5.68;;;;;;;;;;5011098;28;20036;-69
2023/01/11 13:00:06;;;;;;;8.15;5.47;;;;;;;;;;5011337;28;20113;-69
2023/01/11 13:02:45;;;;;;;14.13;8.38;;;;;;;;;;5010926;28;20074;-70
2023/01/11 13:05:26;;;;;;;17.42;8.15;;;;;;;;;;5011270;28;20032;-70
2023/01/11 13:08:04;;;;;;;23.60;14.43;;;;;;;;;;5011212;28;20057;-70
2023/01/11 13:10:49;;;;;;;28.05;12.95;;;;;;;;;;5011011;28;20434;-70
2023/01/11 13:13:19;;;;;;;15.18;8.18;;;;;;;;;;5023298;28;20059;-70
2023/01/11 13:15:52;;;;;;;6.43;3.37;;;;;;;;;;5052888;28;20031;-70
2023/01/11 13:18:22;;;;;;;5.88;1.60;;;;;;;;;;5051944;28;20428;-70
2023/01/11 13:21:12;;;;;;;3.10;1.67;;;;;;;;;;5052929;28;20486;-70
2023/01/11 13:23:45;;;;;;;6.32;2.13;;;;;;;;;;5051746;28;20033;-70
2023/01/11 13:26:11;;;;;;;6.75;2.15;;;;;;;;;;5052817;28;20029;-70
2023/01/11 13:28:40;;;;;;;3.67;1.33;;;;;;;;;;5051446;28;20035;-70
2023/01/11 13:31:07;;;;;;;7.57;1.83;;;;;;;;;;5052487;28;20039;-71
2023/01/11 13:33:37;;;;;;;6.25;1.02;;;;;;;;;;5052422;28;20039;-70
2023/01/11 13:36:03;;;;;;;7.43;1.42;;;;;;;;;;5052727;28;20025;-70
2023/01/11 13:38:48;;;;;;;4.97;1.20;;;;;;;;;;5052892;28;20033;-70
2023/01/11 13:41:18;;;;;;;6.50;1.13;;;;;;;;;;5052241;28;20045;-70
2023/01/11 13:44:01;;;;;;;5.40;1.20;;;;;;;;;;5052135;28;20043;-70
2023/01/11 13:46:30;;;;;;;5.57;1.30;;;;;;;;;;5052375;28;20477;-70
2023/01/11 13:49:02;;;;;;;4.45;1.60;;;;;;;;;;5052672;28;20047;-70
2023/01/11 13:51:44;;;;;;;3.67;1.20;;;;;;;;;;5051988;28;20028;-70
2023/01/11 13:54:16;;;;;;;3.50;1.30;;;;;;;;;;5052215;28;20031;-70
2023/01/11 13:56:45;;;;;;;5.72;1.55;;;;;;;;;;5052174;28;20033;-70
2023/01/11 13:59:35;;;;;;;8.32;2.05;;;;;;;;;;5051629;28;20094;-70
2023/01/11 14:02:01;;;;;;;2.72;1.00;;;;;;;;;;5046240;28;20409;-70
2023/01/11 14:04:32;;;;;;;4.22;1.15;;;;;;;;;;5052320;28;20059;-70
2023/01/11 14:07:08;;;;;;;3.75;1.50;;;;;;;;;;5051725;28;20028;-71
2023/01/11 14:09:53;;;;;;;6.38;1.63;;;;;;;;;;5051866;28;20033;-70
2023/01/11 14:12:19;;;;;;;7.00;1.70;;;;;;;;;;5051552;28;20036;-70
2023/01/11 14:14:45;;;;;;;3.92;1.70;;;;;;;;;;5051261;28;20017;-70
2023/01/11 14:17:27;;;;;;;4.32;1.75;;;;;;;;;;5051753;28;20017;-70
2023/01/11 14:19:56;;;;;;;5.30;2.10;;;;;;;;;;5083916;28;20123;-69
2023/01/11 14:22:31;;;;;;;7.43;2.00;;;;;;;;;;5051573;28;20425;-70
2023/01/11 14:25:01;;;;;;;4.40;1.50;;;;;;;;;;5051642;28;20025;-70
2023/01/11 14:27:27;;;;;;;3.85;1.42;;;;;;;;;;5051692;28;20029;-70
2023/01/11 14:30:09;;;;;;;6.80;1.73;;;;;;;;;;5050243;28;20021;-69
2023/01/11 14:32:36;;;;;;;3.70;1.02;;;;;;;;;;5051368;28;20047;-70
2023/01/11 14:35:23;;;;;;;4.60;1.27;;;;;;;;;;5051430;28;20027;-69
2023/01/11 14:37:50;;;;;;;8.70;1.15;;;;;;;;;;5051423;28;20032;-70
2023/01/11 14:40:21;;;;;;;5.68;1.00;;;;;;;;;;5051247;28;20051;-70
2023/01/11 14:42:48;;;;;;;;;;;;;;;;;;5051080;28;20405;-70
2023/01/11 14:45:15;;;;;;;3.78;0.90;;;;;;;;;;5051514;28;20430;-69
2023/01/11 14:47:58;;;;;;;3.75;0.95;;;;;;;;;;5050985;28;20025;-70
2023/01/11 14:50:44;;;;;;;9.38;4.05;;;;;;;;;;5051114;28;20389;-70
2023/01/11 14:53:12;;;;;;;7.45;1.80;;;;;;;;;;5051215;28;20052;-70
2023/01/11 14:55:45;;;;;;;9.63;3.22;;;;;;;;;;5051092;28;20033;-70
2023/01/11 14:58:25;;;;;;;7.65;2.28;;;;;;;;;;5050673;28;20028;-70
2023/01/11 15:00:54;;;;;;;8.82;1.85;;;;;;;;;;5083083;28;20028;-70
2023/01/11 15:03:20;;;;;;;11.73;2.80;;;;;;;;;;5082185;28;20535;-70
2023/01/11 15:05:47;;;;;;;8.07;1.90;;;;;;;;;;5049616;28;20043;-70
2023/01/11 15:08:13;;;;;;;10.85;2.58;;;;;;;;;;5050713;28;20037;-70
2023/01/11 15:10:40;;;;;;;8.63;1.98;;;;;;;;;;5050993;28;20021;-70
2023/01/11 15:13:11;;;;;;;11.55;2.55;;;;;;;;;;5050216;28;20037;-70
2023/01/11 15:18:24;;;;;;;15.57;2.75;;;;;;;;;;5050848;28;20055;-70
2023/01/11 15:20:52;;;;;;;6.18;1.95;;;;;;;;;;5050712;28;20420;-70
2023/01/11 15:23:19;;;;;;;13.25;2.20;;;;;;;;;;5050855;28;20033;-69